createdAt,value
2017-08-01T00:00:28.755Z,1005.5
2017-08-01T00:01:30.940Z,1005.4
2017-08-01T00:02:32.337Z,1005.3
2017-08-01T00:03:33.985Z,1005.3
2017-08-01T00:04:35.883Z,1005.2
2017-08-01T00:06:18.234Z,1005.0
2017-08-01T00:07:19.620Z,1004.9
2017-08-01T00:08:21.000Z,1004.7
2017-08-01T00:09:22.384Z,1004.6
2017-08-01T00:10:24.021Z,1004.4
2017-08-01T00:11:25.402Z,1004.3
2017-08-01T00:12:26.785Z,1004.2
2017-08-01T00:14:09.166Z,1004.1
2017-08-01T00:15:10.638Z,1004.0
2017-08-01T00:16:12.041Z,1004.0
2017-08-01T00:17:13.414Z,1004.0
2017-08-01T00:18:14.799Z,1004.0
2017-08-01T00:19:16.186Z,1004.0
2017-08-01T00:20:17.564Z,1003.9
2017-08-01T00:21:18.946Z,1003.8
2017-08-01T00:22:20.326Z,1003.8
2017-08-01T00:23:21.730Z,1003.7
2017-08-01T00:24:23.113Z,1003.7
2017-08-01T00:25:24.488Z,1003.5
2017-08-01T00:26:25.886Z,1003.4
2017-08-01T00:27:27.280Z,1003.2
2017-08-01T00:28:28.731Z,1002.9
2017-08-01T00:29:30.112Z,1002.8
2017-08-01T00:30:31.487Z,1002.7
2017-08-01T00:32:13.866Z,1002.8
2017-08-01T00:33:15.243Z,1002.8
2017-08-01T00:34:16.623Z,1002.9
2017-08-01T00:35:18.000Z,1002.9
2017-08-01T00:36:19.383Z,1002.9
2017-08-01T00:37:20.761Z,1002.9
2017-08-01T00:38:22.141Z,1003.0
2017-08-01T00:40:04.507Z,1003.0
2017-08-01T00:41:05.900Z,1003.1
2017-08-01T00:42:07.281Z,1003.0
2017-08-01T00:43:08.664Z,1003.0
2017-08-01T00:44:10.045Z,1002.9
2017-08-01T00:45:11.430Z,1002.9
2017-08-01T00:46:12.810Z,1002.9
2017-08-01T00:47:14.192Z,1002.9
2017-08-01T00:48:15.580Z,1002.9
2017-08-01T00:49:16.960Z,1002.9
2017-08-01T00:50:18.339Z,1002.9
2017-08-01T00:51:19.831Z,1003.0
2017-08-01T00:52:21.219Z,1003.0
2017-08-01T00:53:22.599Z,1003.1
2017-08-01T00:54:24.010Z,1003.2
2017-08-01T00:55:25.387Z,1003.2
2017-08-01T00:56:26.768Z,1003.3
2017-08-01T00:57:28.151Z,1003.5
2017-08-01T00:58:29.526Z,1003.6
2017-08-01T00:59:30.915Z,1003.6
2017-08-01T01:01:13.286Z,1003.6
2017-08-01T01:02:14.664Z,1003.6
2017-08-01T01:03:16.049Z,1003.7
2017-08-01T01:04:17.429Z,1003.7
2017-08-01T01:05:18.835Z,1003.7
2017-08-01T01:06:20.220Z,1003.8
2017-08-01T01:07:21.595Z,1003.8
2017-08-01T01:08:22.985Z,1003.9
2017-08-01T01:10:05.352Z,1004.0
2017-08-01T01:11:06.732Z,1004.0
2017-08-01T01:12:08.110Z,1004.0
2017-08-01T01:13:09.484Z,1004.1
2017-08-01T01:14:10.939Z,1004.0
2017-08-01T01:15:12.320Z,1004.0
2017-08-01T01:16:13.710Z,1003.9
2017-08-01T01:17:15.083Z,1004.0
2017-08-01T01:18:16.553Z,1004.0
2017-08-01T01:19:17.973Z,1003.9
2017-08-01T01:20:19.350Z,1003.9
2017-08-01T01:21:20.858Z,1003.9
2017-08-01T01:22:22.219Z,1004.0
2017-08-01T01:23:23.599Z,1004.0
2017-08-01T01:24:24.981Z,1004.0
2017-08-01T01:25:26.372Z,1004.1
2017-08-01T01:26:27.753Z,1004.2
2017-08-01T01:27:29.152Z,1004.1
2017-08-01T01:28:30.533Z,1004.1
2017-08-01T01:29:31.985Z,1004.2
2017-08-01T01:30:33.375Z,1004.2
2017-08-01T01:31:34.845Z,1004.2
2017-08-01T01:33:17.197Z,1004.2
2017-08-01T01:34:18.575Z,1004.2
2017-08-01T01:35:19.952Z,1004.2
2017-08-01T01:36:21.359Z,1004.3
2017-08-01T01:37:22.849Z,1004.3
2017-08-01T01:38:24.188Z,1004.3
2017-08-01T01:39:25.571Z,1004.4
2017-08-01T01:40:26.955Z,1004.4
2017-08-01T01:41:28.326Z,1004.4
2017-08-01T01:42:29.709Z,1004.4
2017-08-01T01:44:12.081Z,1004.4
2017-08-01T01:45:13.460Z,1004.5
2017-08-01T01:46:14.833Z,1004.4
2017-08-01T01:47:16.441Z,1004.5
2017-08-01T01:48:17.831Z,1004.5
2017-08-01T01:49:19.208Z,1004.6
2017-08-01T01:50:20.675Z,1004.6
2017-08-01T01:51:22.059Z,1004.6
2017-08-01T01:52:23.441Z,1004.5
2017-08-01T01:53:24.934Z,1004.6
2017-08-01T01:54:26.437Z,1004.5
2017-08-01T01:55:28.028Z,1004.5
2017-08-01T01:57:11.015Z,1004.5
2017-08-01T01:58:12.472Z,1004.5
2017-08-01T01:59:13.846Z,1004.5
2017-08-01T02:00:15.537Z,1004.5
2017-08-01T02:01:16.881Z,1004.5
2017-08-01T02:02:18.464Z,1004.5
2017-08-01T02:03:20.235Z,1004.5
2017-08-01T02:04:22.012Z,1004.5
2017-08-01T02:05:23.402Z,1004.5
2017-08-01T02:06:24.793Z,1004.5
2017-08-01T02:07:26.564Z,1004.4
2017-08-01T02:08:28.377Z,1004.4
2017-08-01T02:09:29.854Z,1004.4
2017-08-01T02:10:31.259Z,1004.4
2017-08-01T02:11:32.665Z,1004.3
2017-08-01T02:12:34.135Z,1004.3
2017-08-01T02:13:35.517Z,1004.3
2017-08-01T02:14:37.280Z,1004.3
2017-08-01T02:15:39.065Z,1004.3
2017-08-01T02:16:40.513Z,1004.3
2017-08-01T02:17:41.906Z,1004.4
2017-08-01T02:18:43.297Z,1004.4
2017-08-01T02:19:44.703Z,1004.4
2017-08-01T02:20:46.088Z,1004.4
2017-08-01T02:21:47.968Z,1004.4
2017-08-01T02:22:49.719Z,1004.4
2017-08-01T02:23:51.570Z,1004.4
2017-08-01T02:24:52.974Z,1004.4
2017-08-01T02:25:54.501Z,1004.4
2017-08-01T02:26:55.912Z,1004.4
2017-08-01T02:27:57.291Z,1004.4
2017-08-01T02:28:58.685Z,1004.3
2017-08-01T02:30:00.267Z,1004.3
2017-08-01T02:31:01.957Z,1004.3
2017-08-01T02:32:03.368Z,1004.2
2017-08-01T02:33:04.779Z,1004.2
2017-08-01T02:34:47.170Z,1004.2
2017-08-01T02:35:48.883Z,1004.2
2017-08-01T02:36:50.212Z,1004.3
2017-08-01T02:37:51.819Z,1004.3
2017-08-01T02:38:53.606Z,1004.3
2017-08-01T02:39:55.484Z,1004.3
2017-08-01T02:40:57.173Z,1004.3
2017-08-01T02:41:58.591Z,1004.3
2017-08-01T02:43:00.446Z,1004.3
2017-08-01T02:44:02.299Z,1004.3
2017-08-01T02:45:03.640Z,1004.3
2017-08-01T02:46:05.538Z,1004.3
2017-08-01T02:47:07.347Z,1004.4
2017-08-01T02:48:49.802Z,1004.4
2017-08-01T02:49:51.184Z,1004.3
2017-08-01T02:50:52.933Z,1004.2
2017-08-01T02:51:54.272Z,1004.2
2017-08-01T02:52:55.655Z,1004.2
2017-08-01T02:53:57.034Z,1004.1
2017-08-01T02:54:58.422Z,1004.1
2017-08-01T02:56:00.148Z,1004.1
2017-08-01T02:57:01.856Z,1004.0
2017-08-01T02:58:03.737Z,1004.0
2017-08-01T02:59:05.598Z,1004.1
2017-08-01T03:00:06.988Z,1004.0
2017-08-01T03:01:08.844Z,1004.0
2017-08-01T03:02:10.219Z,1004.0
2017-08-01T03:03:11.598Z,1003.9
2017-08-01T03:04:12.975Z,1003.9
2017-08-01T03:05:14.353Z,1004.0
2017-08-01T03:06:15.982Z,1004.0
2017-08-01T03:07:17.364Z,1004.1
2017-08-01T03:08:18.768Z,1004.1
2017-08-01T03:09:20.187Z,1004.1
2017-08-01T03:10:21.580Z,1004.1
2017-08-01T03:11:23.436Z,1004.1
2017-08-01T03:12:25.264Z,1004.0
2017-08-01T03:13:27.044Z,1004.0
2017-08-01T03:14:28.430Z,1004.0
2017-08-01T03:15:30.059Z,1004.0
2017-08-01T03:16:31.859Z,1004.0
2017-08-01T03:17:33.603Z,1003.9
2017-08-01T03:18:35.509Z,1003.9
2017-08-01T03:19:36.904Z,1003.9
2017-08-01T03:20:38.704Z,1003.8
2017-08-01T03:22:21.046Z,1003.8
2017-08-01T03:23:22.437Z,1003.8
2017-08-01T03:24:23.810Z,1003.8
2017-08-01T03:25:25.188Z,1003.9
2017-08-01T03:26:26.567Z,1003.9
2017-08-01T03:27:27.956Z,1003.9
2017-08-01T03:28:29.372Z,1003.9
2017-08-01T03:30:11.736Z,1003.8
2017-08-01T03:31:13.119Z,1003.7
2017-08-01T03:32:14.714Z,1003.7
2017-08-01T03:33:16.096Z,1003.7
2017-08-01T03:34:17.472Z,1003.6
2017-08-01T03:35:18.853Z,1003.7
2017-08-01T03:36:20.235Z,1003.7
2017-08-01T03:37:21.614Z,1003.7
2017-08-01T03:38:23.356Z,1003.7
2017-08-01T03:39:25.041Z,1003.7
2017-08-01T03:40:26.477Z,1003.7
2017-08-01T03:41:27.871Z,1003.7
2017-08-01T03:42:29.274Z,1003.7
2017-08-01T03:43:30.995Z,1003.7
2017-08-01T03:44:32.549Z,1003.8
2017-08-01T03:45:33.949Z,1003.8
2017-08-01T03:46:35.720Z,1003.9
2017-08-01T03:47:37.451Z,1003.8
2017-08-01T03:48:39.381Z,1003.9
2017-08-01T03:49:40.787Z,1003.9
2017-08-01T03:50:42.573Z,1004.0
2017-08-01T03:51:44.037Z,1003.9
2017-08-01T03:52:45.436Z,1004.0
2017-08-01T03:53:47.007Z,1004.0
2017-08-01T03:54:48.419Z,1003.9
2017-08-01T03:55:50.281Z,1003.9
2017-08-01T03:56:52.475Z,1003.9
2017-08-01T03:57:53.879Z,1004.0
2017-08-01T03:58:55.740Z,1004.0
2017-08-01T03:59:57.110Z,1004.0
2017-08-01T04:00:58.527Z,1004.0
2017-08-01T04:01:59.946Z,1004.0
2017-08-01T04:03:01.803Z,1004.1
2017-08-01T04:04:03.210Z,1004.0
2017-08-01T04:05:04.666Z,1004.0
2017-08-01T04:06:06.064Z,1004.1
2017-08-01T04:07:07.705Z,1004.1
2017-08-01T04:08:09.624Z,1004.1
2017-08-01T04:09:11.008Z,1004.1
2017-08-01T04:10:12.430Z,1004.0
2017-08-01T04:11:13.825Z,1004.0
2017-08-01T04:12:15.214Z,1004.1
2017-08-01T04:13:16.614Z,1004.0
2017-08-01T04:14:18.040Z,1004.0
2017-08-01T04:15:19.577Z,1004.0
2017-08-01T04:16:21.599Z,1003.9
2017-08-01T04:18:04.063Z,1003.9
2017-08-01T04:19:05.411Z,1003.9
2017-08-01T04:20:06.797Z,1003.9
2017-08-01T04:21:08.183Z,1003.8
2017-08-01T04:22:09.582Z,1003.9
2017-08-01T04:23:10.977Z,1003.9
2017-08-01T04:24:12.874Z,1003.9
2017-08-01T04:25:14.332Z,1003.9
2017-08-01T04:26:16.018Z,1003.9
2017-08-01T04:27:17.830Z,1003.8
2017-08-01T04:28:19.763Z,1003.8
2017-08-01T04:29:21.459Z,1003.8
2017-08-01T04:30:23.277Z,1003.8
2017-08-01T04:31:24.687Z,1003.8
2017-08-01T04:32:26.095Z,1003.9
2017-08-01T04:33:27.947Z,1003.9
2017-08-01T04:34:29.506Z,1004.0
2017-08-01T04:35:30.897Z,1004.0
2017-08-01T04:36:32.293Z,1004.0
2017-08-01T04:37:33.841Z,1004.0
2017-08-01T04:38:35.597Z,1004.1
2017-08-01T04:39:37.007Z,1004.2
2017-08-01T04:40:38.416Z,1004.2
2017-08-01T04:41:39.856Z,1004.2
2017-08-01T04:42:41.288Z,1004.2
2017-08-01T04:43:43.072Z,1004.1
2017-08-01T04:44:44.579Z,1004.1
2017-08-01T04:45:46.015Z,1004.0
2017-08-01T04:46:47.412Z,1004.0
2017-08-01T04:47:49.294Z,1004.0
2017-08-01T04:48:50.669Z,1003.9
2017-08-01T04:49:52.064Z,1003.9
2017-08-01T04:50:53.476Z,1003.9
2017-08-01T04:51:54.916Z,1004.0
2017-08-01T04:52:56.323Z,1003.9
2017-08-01T04:53:57.734Z,1003.9
2017-08-01T04:55:40.127Z,1004.0
2017-08-01T04:56:41.639Z,1004.0
2017-08-01T04:57:43.821Z,1004.1
2017-08-01T04:58:45.909Z,1004.0
2017-08-01T04:59:47.765Z,1004.0
2017-08-01T05:00:49.733Z,1004.0
2017-08-01T05:01:51.311Z,1004.0
2017-08-01T05:02:52.682Z,1004.0
2017-08-01T05:03:54.134Z,1004.0
2017-08-01T05:04:55.523Z,1004.1
2017-08-01T05:05:57.491Z,1004.1
2017-08-01T05:07:39.884Z,1004.1
2017-08-01T05:08:41.281Z,1004.0
2017-08-01T05:09:43.193Z,1004.0
2017-08-01T05:10:44.581Z,1004.0
2017-08-01T05:11:45.968Z,1004.0
2017-08-01T05:12:47.356Z,1004.0
2017-08-01T05:13:48.742Z,1004.1
2017-08-01T05:14:50.131Z,1004.1
2017-08-01T05:16:34.012Z,1004.2
2017-08-01T05:17:35.456Z,1004.3
2017-08-01T05:18:36.838Z,1004.3
2017-08-01T05:19:38.226Z,1004.5
2017-08-01T05:20:40.218Z,1004.4
2017-08-01T05:21:41.604Z,1004.5
2017-08-01T05:22:43.000Z,1004.5
2017-08-01T05:23:44.420Z,1004.6
2017-08-01T05:24:45.817Z,1004.6
2017-08-01T05:25:47.258Z,1004.6
2017-08-01T05:26:48.678Z,1004.7
2017-08-01T05:27:50.390Z,1004.7
2017-08-01T05:28:51.783Z,1004.8
2017-08-01T05:29:53.186Z,1004.9
2017-08-01T05:30:54.605Z,1004.9
2017-08-01T05:32:36.989Z,1004.9
2017-08-01T05:33:38.374Z,1004.9
2017-08-01T05:34:39.788Z,1004.9
2017-08-01T05:35:41.175Z,1004.9
2017-08-01T05:36:42.566Z,1004.9
2017-08-01T05:37:43.958Z,1004.8
2017-08-01T05:38:45.476Z,1004.8
2017-08-01T05:39:47.167Z,1004.8
2017-08-01T05:40:48.955Z,1004.8
2017-08-01T05:42:30.322Z,1004.7
2017-08-01T05:43:31.709Z,1004.6
2017-08-01T05:44:33.100Z,1004.7
2017-08-01T05:45:34.562Z,1004.6
2017-08-01T05:46:35.934Z,1004.6
2017-08-01T05:47:37.326Z,1004.6
2017-08-01T05:48:38.810Z,1004.6
2017-08-01T05:49:40.257Z,1004.7
2017-08-01T05:50:41.643Z,1004.7
2017-08-01T05:51:43.034Z,1004.7
2017-08-01T05:52:44.476Z,1004.8
2017-08-01T05:53:45.859Z,1004.8
2017-08-01T05:54:47.265Z,1004.8
2017-08-01T05:55:48.657Z,1004.8
2017-08-01T05:56:50.064Z,1004.7
2017-08-01T05:57:51.750Z,1004.7
2017-08-01T05:58:53.151Z,1004.7
2017-08-01T05:59:54.599Z,1004.6
2017-08-01T06:00:56.021Z,1004.7
2017-08-01T06:01:57.485Z,1004.6
2017-08-01T06:02:58.985Z,1004.6
2017-08-01T06:04:00.433Z,1004.6
2017-08-01T06:05:01.846Z,1004.7
2017-08-01T06:06:03.245Z,1004.7
2017-08-01T06:07:05.144Z,1004.7
2017-08-01T06:08:06.583Z,1004.7
2017-08-01T06:09:08.331Z,1004.8
2017-08-01T06:10:09.790Z,1004.9
2017-08-01T06:11:11.189Z,1004.9
2017-08-01T06:12:12.584Z,1004.9
2017-08-01T06:13:14.242Z,1004.9
2017-08-01T06:14:15.644Z,1005.0
2017-08-01T06:15:17.046Z,1005.0
2017-08-01T06:16:18.454Z,1005.0
2017-08-01T06:17:19.900Z,1004.9
2017-08-01T06:18:21.302Z,1004.9
2017-08-01T06:19:22.697Z,1004.7
2017-08-01T06:20:24.125Z,1004.8
2017-08-01T06:21:25.547Z,1004.8
2017-08-01T06:22:26.942Z,1004.8
2017-08-01T06:23:28.426Z,1005.0
2017-08-01T06:24:29.811Z,1004.9
2017-08-01T06:25:31.217Z,1005.1
2017-08-01T06:26:32.611Z,1005.2
2017-08-01T06:28:15.054Z,1005.1
2017-08-01T06:29:16.448Z,1005.2
2017-08-01T06:30:17.836Z,1005.4
2017-08-01T06:31:19.235Z,1005.4
2017-08-01T06:32:20.637Z,1005.9
2017-08-01T06:33:22.024Z,1006.0
2017-08-01T06:34:23.425Z,1006.2
2017-08-01T06:35:24.822Z,1006.7
2017-08-01T06:36:26.205Z,1007.3
2017-08-01T06:37:27.611Z,1007.2
2017-08-01T06:38:29.020Z,1006.7
2017-08-01T06:39:30.415Z,1006.4
2017-08-01T06:40:31.807Z,1006.2
2017-08-01T06:41:33.202Z,1006.1
2017-08-01T06:42:34.600Z,1005.7
2017-08-01T06:43:35.990Z,1005.9
2017-08-01T06:44:37.465Z,1005.6
2017-08-01T06:45:38.874Z,1005.5
2017-08-01T06:46:40.283Z,1005.5
2017-08-01T06:47:41.676Z,1005.5
2017-08-01T06:48:43.072Z,1005.7
2017-08-01T06:50:25.484Z,1005.7
2017-08-01T06:51:26.880Z,1005.7
2017-08-01T06:52:28.268Z,1005.7
2017-08-01T06:53:29.670Z,1005.7
2017-08-01T06:54:31.060Z,1005.7
2017-08-01T06:55:32.452Z,1005.7
2017-08-01T06:56:33.847Z,1005.8
2017-08-01T06:57:35.242Z,1005.8
2017-08-01T06:58:36.632Z,1005.8
2017-08-01T06:59:38.028Z,1005.8
2017-08-01T07:00:39.472Z,1005.8
2017-08-01T07:01:40.897Z,1005.7
2017-08-01T07:02:42.286Z,1005.6
2017-08-01T07:03:43.830Z,1005.6
2017-08-01T07:04:45.282Z,1005.7
2017-08-01T07:05:46.704Z,1005.6
2017-08-01T07:06:48.179Z,1005.6
2017-08-01T07:07:49.759Z,1005.7
2017-08-01T07:08:51.172Z,1005.8
2017-08-01T07:09:52.574Z,1005.8
2017-08-01T07:10:53.970Z,1005.9
2017-08-01T07:11:55.387Z,1006.1
2017-08-01T07:12:56.805Z,1006.1
2017-08-01T07:13:58.352Z,1006.1
2017-08-01T07:15:00.004Z,1006.1
2017-08-01T07:16:01.428Z,1006.1
2017-08-01T07:17:43.822Z,1006.2
2017-08-01T07:18:45.223Z,1006.1
2017-08-01T07:19:46.610Z,1006.2
2017-08-01T07:20:48.003Z,1006.3
2017-08-01T07:21:49.446Z,1006.3
2017-08-01T07:22:50.850Z,1006.3
2017-08-01T07:23:52.230Z,1006.2
2017-08-01T07:24:53.644Z,1006.2
2017-08-01T07:25:55.056Z,1006.2
2017-08-01T07:26:56.436Z,1006.2
2017-08-01T07:27:57.874Z,1006.2
2017-08-01T07:28:59.246Z,1006.2
2017-08-01T07:30:00.637Z,1006.1
2017-08-01T07:31:02.030Z,1006.1
2017-08-01T07:32:03.427Z,1006.0
2017-08-01T07:33:04.934Z,1006.0
2017-08-01T07:34:06.319Z,1006.0
2017-08-01T07:35:48.712Z,1006.0
2017-08-01T07:36:50.102Z,1006.0
2017-08-01T07:37:51.493Z,1006.0
2017-08-01T07:38:52.882Z,1006.1
2017-08-01T07:39:54.404Z,1006.1
2017-08-01T07:40:55.799Z,1006.2
2017-08-01T07:41:57.191Z,1006.1
2017-08-01T07:42:58.585Z,1006.1
2017-08-01T07:44:00.002Z,1006.0
2017-08-01T07:45:01.400Z,1006.0
2017-08-01T07:46:02.792Z,1005.9
2017-08-01T07:47:04.181Z,1005.9
2017-08-01T07:48:05.610Z,1005.8
2017-08-01T07:49:07.002Z,1005.7
2017-08-01T07:50:08.399Z,1005.7
2017-08-01T07:51:09.796Z,1005.8
2017-08-01T07:52:11.181Z,1005.7
2017-08-01T07:53:12.832Z,1005.8
2017-08-01T07:54:14.289Z,1005.8
2017-08-01T07:55:15.652Z,1005.9
2017-08-01T07:56:17.045Z,1005.8
2017-08-01T07:57:18.438Z,1005.8
2017-08-01T07:58:19.847Z,1005.7
2017-08-01T07:59:21.232Z,1005.7
2017-08-01T08:00:22.637Z,1005.6
2017-08-01T08:01:24.039Z,1005.6
2017-08-01T08:02:25.448Z,1005.6
2017-08-01T08:03:26.869Z,1005.6
2017-08-01T08:04:28.269Z,1005.6
2017-08-01T08:05:29.776Z,1005.6
2017-08-01T08:09:15.153Z,1005.6
2017-08-01T08:10:16.539Z,1005.5
2017-08-01T08:11:17.934Z,1005.5
2017-08-01T08:12:19.350Z,1005.4
2017-08-01T08:13:20.737Z,1005.5
2017-08-01T08:14:22.130Z,1005.6
2017-08-01T08:15:23.524Z,1005.6
2017-08-01T08:16:24.957Z,1005.6
2017-08-01T08:17:26.347Z,1005.5
2017-08-01T08:18:27.737Z,1005.4
2017-08-01T08:19:29.145Z,1005.4
2017-08-01T08:20:30.542Z,1005.4
2017-08-01T08:22:12.966Z,1005.4
2017-08-01T08:23:14.370Z,1005.4
2017-08-01T08:24:15.759Z,1005.5
2017-08-01T08:25:17.153Z,1005.4
2017-08-01T08:26:18.542Z,1005.5
2017-08-01T08:27:19.951Z,1005.5
2017-08-01T08:28:21.362Z,1005.4
2017-08-01T08:29:22.746Z,1005.5
2017-08-01T08:30:24.180Z,1005.4
2017-08-01T08:31:25.577Z,1005.5
2017-08-01T08:32:26.971Z,1005.5
2017-08-01T08:33:28.399Z,1005.6
2017-08-01T08:34:29.831Z,1005.7
2017-08-01T08:35:31.285Z,1005.7
2017-08-01T08:36:32.772Z,1005.8
2017-08-01T08:37:34.202Z,1005.9
2017-08-01T08:38:35.619Z,1005.9
2017-08-01T08:39:36.996Z,1005.9
2017-08-01T08:40:38.387Z,1006.0
2017-08-01T08:41:39.789Z,1006.0
2017-08-01T08:42:41.549Z,1006.0
2017-08-01T08:43:42.933Z,1006.0
2017-08-01T08:44:44.320Z,1006.1
2017-08-01T08:45:45.717Z,1006.1
2017-08-01T08:46:47.554Z,1006.1
2017-08-01T08:47:48.950Z,1006.1
2017-08-01T08:48:50.362Z,1006.2
2017-08-01T08:49:51.756Z,1006.2
2017-08-01T08:50:53.276Z,1006.2
2017-08-01T08:51:54.692Z,1006.3
2017-08-01T08:52:56.082Z,1006.3
2017-08-01T08:53:57.830Z,1006.3
2017-08-01T08:54:59.255Z,1006.4
2017-08-01T08:56:00.660Z,1006.4
2017-08-01T08:57:43.057Z,1006.5
2017-08-01T08:58:44.450Z,1006.6
2017-08-01T08:59:45.843Z,1006.6
2017-08-01T09:00:47.233Z,1006.6
2017-08-01T09:01:48.623Z,1006.6
2017-08-01T09:02:50.024Z,1006.6
2017-08-01T09:03:51.417Z,1006.7
2017-08-01T09:04:52.809Z,1006.7
2017-08-01T09:05:54.294Z,1006.6
2017-08-01T09:06:55.715Z,1006.7
2017-08-01T09:07:57.091Z,1006.7
2017-08-01T09:09:39.502Z,1006.6
2017-08-01T09:10:40.886Z,1006.7
2017-08-01T09:11:42.270Z,1006.7
2017-08-01T09:12:43.666Z,1006.8
2017-08-01T09:13:45.077Z,1006.7
2017-08-01T09:14:46.470Z,1006.7
2017-08-01T09:15:47.893Z,1006.8
2017-08-01T09:16:49.281Z,1006.7
2017-08-01T09:17:50.674Z,1006.6
2017-08-01T09:18:52.061Z,1006.6
2017-08-01T09:19:53.455Z,1006.6
2017-08-01T09:20:54.925Z,1006.5
2017-08-01T09:21:56.321Z,1006.4
2017-08-01T09:22:57.709Z,1006.3
2017-08-01T09:23:59.102Z,1006.1
2017-08-01T09:25:00.533Z,1005.7
2017-08-01T09:26:42.895Z,1004.9
2017-08-01T09:27:44.275Z,1004.5
2017-08-01T09:28:45.665Z,1004.4
2017-08-01T09:29:47.052Z,1004.4
2017-08-01T09:30:48.455Z,1004.4
2017-08-01T09:31:49.893Z,1004.3
2017-08-01T09:32:51.279Z,1004.4
2017-08-01T09:33:52.671Z,1004.4
2017-08-01T09:34:54.112Z,1004.4
2017-08-01T09:35:55.588Z,1004.4
2017-08-01T09:36:57.084Z,1004.4
2017-08-01T09:37:58.686Z,1004.4
2017-08-01T09:39:00.252Z,1004.4
2017-08-01T09:40:01.729Z,1004.5
2017-08-01T09:41:03.714Z,1004.5
2017-08-01T09:42:05.705Z,1004.5
2017-08-01T09:43:07.157Z,1004.6
2017-08-01T09:44:08.809Z,1004.8
2017-08-01T09:45:10.526Z,1004.9
2017-08-01T09:46:53.409Z,1005.2
2017-08-01T09:47:56.210Z,1005.3
2017-08-01T09:48:57.635Z,1005.4
2017-08-01T09:49:59.133Z,1005.5
2017-08-01T09:51:00.602Z,1005.4
2017-08-01T09:52:02.049Z,1005.4
2017-08-01T09:53:03.469Z,1005.4
2017-08-01T09:54:04.877Z,1005.4
2017-08-01T09:55:06.537Z,1005.4
2017-08-01T09:56:08.007Z,1005.4
2017-08-01T09:57:09.509Z,1005.5
2017-08-01T09:58:11.009Z,1005.5
2017-08-01T09:59:12.394Z,1005.5
2017-08-01T10:00:13.862Z,1005.6
2017-08-01T10:01:15.288Z,1005.6
2017-08-01T10:02:16.754Z,1005.5
2017-08-01T10:03:18.609Z,1005.4
2017-08-01T10:04:20.470Z,1005.2
2017-08-01T10:05:21.891Z,1005.0
2017-08-01T10:06:23.762Z,1005.0
2017-08-01T10:07:25.275Z,1005.1
2017-08-01T10:08:26.724Z,1005.3
2017-08-01T10:09:28.656Z,1005.4
2017-08-01T10:10:30.480Z,1005.5
2017-08-01T10:11:32.312Z,1005.6
2017-08-01T10:12:34.225Z,1005.7
2017-08-01T10:13:35.720Z,1005.8
2017-08-01T10:14:37.204Z,1005.9
2017-08-01T10:15:38.734Z,1005.9
2017-08-01T10:16:40.206Z,1006.0
2017-08-01T10:18:22.664Z,1006.0
2017-08-01T10:19:24.020Z,1006.1
2017-08-01T10:20:25.409Z,1006.5
2017-08-01T10:21:26.814Z,1006.6
2017-08-01T10:22:28.282Z,1006.7
2017-08-01T10:23:29.742Z,1006.5
2017-08-01T10:24:31.143Z,1006.3
2017-08-01T10:25:32.572Z,1006.6
2017-08-01T10:26:33.961Z,1006.4
2017-08-01T10:27:35.355Z,1006.2
2017-08-01T10:28:36.768Z,1006.4
2017-08-01T10:29:38.167Z,1006.0
2017-08-01T10:30:39.561Z,1006.1
2017-08-01T10:31:40.959Z,1006.3
2017-08-01T10:32:42.356Z,1006.2
2017-08-01T10:34:24.775Z,1006.0
2017-08-01T10:35:26.169Z,1006.0
2017-08-01T10:36:27.568Z,1006.2
2017-08-01T10:37:28.975Z,1006.3
2017-08-01T10:38:30.359Z,1006.0
2017-08-01T10:39:31.762Z,1006.1
2017-08-01T10:40:33.190Z,1006.5
2017-08-01T10:41:34.590Z,1006.6
2017-08-01T10:42:35.988Z,1006.4
2017-08-01T10:43:37.388Z,1006.8
2017-08-01T10:44:38.793Z,1006.6
2017-08-01T10:45:40.194Z,1006.6
2017-08-01T10:46:41.597Z,1006.5
2017-08-01T10:47:43.013Z,1006.5
2017-08-01T10:48:44.410Z,1006.6
2017-08-01T10:49:45.810Z,1006.6
2017-08-01T10:50:47.208Z,1007.0
2017-08-01T10:52:29.606Z,1006.5
2017-08-01T10:53:31.007Z,1006.4
2017-08-01T10:54:32.415Z,1006.4
2017-08-01T10:55:33.817Z,1006.5
2017-08-01T10:56:35.217Z,1006.5
2017-08-01T10:57:36.627Z,1006.6
2017-08-01T10:58:38.040Z,1006.6
2017-08-01T10:59:39.447Z,1006.7
2017-08-01T11:00:40.848Z,1006.8
2017-08-01T11:01:42.250Z,1006.8
2017-08-01T11:02:43.657Z,1006.7
2017-08-01T11:03:45.065Z,1006.7
2017-08-01T11:04:46.465Z,1006.6
2017-08-01T11:05:47.917Z,1006.6
2017-08-01T11:06:49.304Z,1006.5
2017-08-01T11:07:50.701Z,1006.5
2017-08-01T11:08:52.090Z,1006.4
2017-08-01T11:09:53.517Z,1006.4
2017-08-01T11:10:54.934Z,1006.5
2017-08-01T11:11:56.335Z,1006.6
2017-08-01T11:13:38.745Z,1006.7
2017-08-01T11:14:40.143Z,1006.9
2017-08-01T11:15:41.540Z,1006.8
2017-08-01T11:16:42.957Z,1006.7
2017-08-01T11:17:44.361Z,1006.7
2017-08-01T11:18:45.762Z,1006.7
2017-08-01T11:19:47.165Z,1006.8
2017-08-01T11:20:48.569Z,1006.8
2017-08-01T11:21:49.971Z,1006.8
2017-08-01T11:22:51.368Z,1006.8
2017-08-01T11:23:52.806Z,1006.7
2017-08-01T11:24:54.195Z,1006.7
2017-08-01T11:25:55.596Z,1006.7
2017-08-01T11:26:56.994Z,1006.7
2017-08-01T11:27:58.443Z,1006.6
2017-08-01T11:28:59.843Z,1006.7
2017-08-01T11:30:01.238Z,1006.8
2017-08-01T11:31:02.645Z,1006.8
2017-08-01T11:32:04.041Z,1006.8
2017-08-01T11:33:05.440Z,1006.9
2017-08-01T11:34:06.838Z,1006.8
2017-08-01T11:35:08.249Z,1006.8
2017-08-01T11:36:09.648Z,1006.9
2017-08-01T11:37:11.061Z,1007.0
2017-08-01T11:38:53.459Z,1007.0
2017-08-01T11:39:54.861Z,1007.0
2017-08-01T11:40:56.257Z,1006.9
2017-08-01T11:41:57.650Z,1006.9
2017-08-01T11:42:59.053Z,1007.0
2017-08-01T11:44:00.545Z,1007.1
2017-08-01T11:45:01.930Z,1007.1
2017-08-01T11:46:03.332Z,1007.2
2017-08-01T11:47:04.735Z,1007.2
2017-08-01T11:48:06.135Z,1007.2
2017-08-01T11:49:07.539Z,1007.3
2017-08-01T11:50:08.948Z,1007.2
2017-08-01T11:51:10.353Z,1007.2
2017-08-01T11:52:11.761Z,1007.2
2017-08-01T11:53:13.178Z,1007.0
2017-08-01T11:54:14.576Z,1007.0
2017-08-01T11:55:15.975Z,1007.0
2017-08-01T11:56:17.371Z,1006.9
2017-08-01T11:57:18.765Z,1006.9
2017-08-01T11:58:20.162Z,1006.8
2017-08-01T11:59:21.572Z,1006.8
2017-08-01T12:00:23.011Z,1006.8
2017-08-01T12:01:24.406Z,1006.7
2017-08-01T12:02:25.803Z,1006.7
2017-08-01T12:03:27.227Z,1006.7
2017-08-01T12:04:28.615Z,1006.7
2017-08-01T12:05:30.013Z,1006.7
2017-08-01T12:06:31.487Z,1006.6
2017-08-01T12:07:32.911Z,1006.6
2017-08-01T12:08:34.307Z,1006.6
2017-08-01T12:09:35.701Z,1006.6
2017-08-01T12:10:37.105Z,1006.6
2017-08-01T12:11:38.544Z,1006.6
2017-08-01T12:12:39.938Z,1006.7
2017-08-01T12:13:41.426Z,1006.8
2017-08-01T12:14:42.926Z,1006.8
2017-08-01T12:15:44.328Z,1006.7
2017-08-01T12:16:45.719Z,1006.7
2017-08-01T12:17:47.129Z,1006.8
2017-08-01T12:18:48.554Z,1006.8
2017-08-01T12:19:49.966Z,1006.8
2017-08-01T12:20:51.510Z,1006.8
2017-08-01T12:21:52.994Z,1006.8
2017-08-01T12:22:54.401Z,1006.7
2017-08-01T12:23:55.800Z,1006.6
2017-08-01T12:24:57.195Z,1006.6
2017-08-01T12:25:58.657Z,1006.6
2017-08-01T12:27:00.089Z,1006.6
2017-08-01T12:28:01.486Z,1006.6
2017-08-01T12:29:02.970Z,1006.6
2017-08-01T12:30:04.435Z,1006.6
2017-08-01T12:31:05.903Z,1006.5
2017-08-01T12:32:07.328Z,1006.6
2017-08-01T12:33:08.726Z,1006.5
2017-08-01T12:34:10.117Z,1006.5
2017-08-01T12:35:11.535Z,1006.5
2017-08-01T12:36:12.983Z,1006.5
2017-08-01T12:37:14.406Z,1006.5
2017-08-01T12:38:15.840Z,1006.5
2017-08-01T12:39:17.239Z,1006.4
2017-08-01T12:40:18.669Z,1006.4
2017-08-01T12:41:20.160Z,1006.4
2017-08-01T12:42:21.562Z,1006.3
2017-08-01T12:43:22.984Z,1006.4
2017-08-01T12:44:24.501Z,1006.3
2017-08-01T12:45:25.891Z,1006.4
2017-08-01T12:46:27.407Z,1006.3
2017-08-01T12:47:28.805Z,1006.3
2017-08-01T12:48:30.207Z,1006.2
2017-08-01T12:49:31.736Z,1006.1
2017-08-01T12:51:14.122Z,1006.0
2017-08-01T12:52:15.511Z,1006.0
2017-08-01T12:53:17.325Z,1006.0
2017-08-01T12:54:18.733Z,1006.0
2017-08-01T12:55:20.124Z,1006.0
2017-08-01T12:56:21.516Z,1006.0
2017-08-01T12:57:22.924Z,1006.0
2017-08-01T12:58:24.324Z,1006.0
2017-08-01T12:59:25.713Z,1006.0
2017-08-01T13:00:27.110Z,1006.0
2017-08-01T13:01:28.564Z,1006.0
2017-08-01T13:02:29.955Z,1006.1
2017-08-01T13:03:31.343Z,1006.1
2017-08-01T13:04:32.731Z,1006.2
2017-08-01T13:05:34.159Z,1006.2
2017-08-01T13:06:35.573Z,1006.2
2017-08-01T13:07:36.975Z,1006.2
2017-08-01T13:08:38.370Z,1006.3
2017-08-01T13:09:39.811Z,1006.3
2017-08-01T13:10:41.245Z,1006.4
2017-08-01T13:11:42.674Z,1006.4
2017-08-01T13:12:44.070Z,1006.5